sensor_id;sensor_type;location;lat;lon;timestamp;pressure;altitude;pressure_sealevel;temperature;humidity
53868;BME280;41577;47.470;19.080;2023-03-25T00:00:17;99250.06;;;15.85;63.83
53868;BME280;41577;47.470;19.080;2023-03-25T00:00:31;99255.44;;;15.85;63.69
53868;BME280;41577;47.470;19.080;2023-03-25T00:00:44;99256.28;;;15.85;64.25
53868;BME280;41577;47.470;19.080;2023-03-25T00:01:00;99253.81;;;15.84;63.52
53868;BME280;41577;47.470;19.080;2023-03-25T00:01:16;99253.81;;;15.84;63.59
53868;BME280;41577;47.470;19.080;2023-03-25T00:01:30;99255.72;;;15.83;63.45
53868;BME280;41577;47.470;19.080;2023-03-25T00:01:45;99254.91;;;15.83;64.25
53868;BME280;41577;47.470;19.080;2023-03-25T00:02:01;99255.72;;;15.83;63.58
53868;BME280;41577;47.470;19.080;2023-03-25T00:02:13;99260.28;;;15.83;63.65
53868;BME280;41577;47.470;19.080;2023-03-25T00:02:29;99254.91;;;15.83;63.77
53868;BME280;41577;47.470;19.080;2023-03-25T00:02:42;99262.13;;;15.82;64.31
53868;BME280;41577;47.470;19.080;2023-03-25T00:02:56;99256.75;;;15.82;64.06
53868;BME280;41577;47.470;19.080;2023-03-25T00:03:09;99257.84;;;15.81;63.89
53868;BME280;41577;47.470;19.080;2023-03-25T00:03:22;99253.25;;;15.82;64.04
53868;BME280;41577;47.470;19.080;2023-03-25T00:03:35;99255.94;;;15.82;63.99
53868;BME280;41577;47.470;19.080;2023-03-25T00:03:48;99258.66;;;15.82;64.23
53868;BME280;41577;47.470;19.080;2023-03-25T00:04:02;99257.84;;;15.81;64.11
53868;BME280;41577;47.470;19.080;2023-03-25T00:04:14;99256.19;;;15.80;64.20
53868;BME280;41577;47.470;19.080;2023-03-25T00:04:28;99257.03;;;15.81;64.22
53868;BME280;41577;47.470;19.080;2023-03-25T00:04:41;99261.56;;;15.80;64.32
53868;BME280;41577;47.470;19.080;2023-03-25T00:04:57;99257.28;;;15.79;64.06
53868;BME280;41577;47.470;19.080;2023-03-25T00:05:15;99256.69;;;15.77;64.24
53868;BME280;41577;47.470;19.080;2023-03-25T00:05:31;99248.63;;;15.77;64.25
53868;BME280;41577;47.470;19.080;2023-03-25T00:05:45;99255.88;;;15.77;64.01
53868;BME280;41577;47.470;19.080;2023-03-25T00:06:00;99263.97;;;15.77;64.40
53868;BME280;41577;47.470;19.080;2023-03-25T00:06:12;99247.81;;;15.77;64.21
53868;BME280;41577;47.470;19.080;2023-03-25T00:06:34;99260.47;;;15.76;64.70
53868;BME280;41577;47.470;19.080;2023-03-25T00:06:49;99257.19;;;15.74;64.43
53868;BME280;41577;47.470;19.080;2023-03-25T00:07:03;99266.09;;;15.75;64.47
53868;BME280;41577;47.470;19.080;2023-03-25T00:07:17;99260.69;;;15.75;64.42
53868;BME280;41577;47.470;19.080;2023-03-25T00:07:31;99255.31;;;15.75;64.60
53868;BME280;41577;47.470;19.080;2023-03-25T00:07:48;99256.13;;;15.75;64.45
53868;BME280;41577;47.470;19.080;2023-03-25T00:08:00;99259.91;;;15.74;64.11
53868;BME280;41577;47.470;19.080;2023-03-25T00:08:13;99263.41;;;15.75;64.38
53868;BME280;41577;47.470;19.080;2023-03-25T00:08:26;99257.44;;;15.73;64.20
53868;BME280;41577;47.470;19.080;2023-03-25T00:08:41;99260.13;;;15.73;64.38
53868;BME280;41577;47.470;19.080;2023-03-25T00:08:53;99263.63;;;15.73;64.55
53868;BME280;41577;47.470;19.080;2023-03-25T00:09:07;99254.50;;;15.74;63.94
53868;BME280;41577;47.470;19.080;2023-03-25T00:09:21;99266.09;;;15.75;64.19
53868;BME280;41577;47.470;19.080;2023-03-25T00:09:38;99257.19;;;15.74;64.33
53868;BME280;41577;47.470;19.080;2023-03-25T00:09:54;99259.91;;;15.74;63.83
53868;BME280;41577;47.470;19.080;2023-03-25T00:10:09;99259.09;;;15.74;64.10
53868;BME280;41577;47.470;19.080;2023-03-25T00:10:22;99254.75;;;15.73;63.56
53868;BME280;41577;47.470;19.080;2023-03-25T00:10:34;99255.31;;;15.75;64.13
53868;BME280;41577;47.470;19.080;2023-03-25T00:10:51;99253.44;;;15.75;63.37
53868;BME280;41577;47.470;19.080;2023-03-25T00:11:05;99256.13;;;15.75;63.32
53868;BME280;41577;47.470;19.080;2023-03-25T00:11:19;99258.00;;;15.75;63.82
53868;BME280;41577;47.470;19.080;2023-03-25T00:11:34;99259.63;;;15.76;63.32
53868;BME280;41577;47.470;19.080;2023-03-25T00:11:48;99260.69;;;15.75;63.51
53868;BME280;41577;47.470;19.080;2023-03-25T00:12:01;99249.94;;;15.75;63.52
53868;BME280;41577;47.470;19.080;2023-03-25T00:12:15;99251.00;;;15.74;62.50
53868;BME280;41577;47.470;19.080;2023-03-25T00:12:30;99255.31;;;15.75;62.66
53868;BME280;41577;47.470;19.080;2023-03-25T00:12:43;99248.84;;;15.76;62.53
53868;BME280;41577;47.470;19.080;2023-03-25T00:12:56;99260.47;;;15.76;62.42
53868;BME280;41577;47.470;19.080;2023-03-25T00:13:09;99257.78;;;15.76;62.24
53868;BME280;41577;47.470;19.080;2023-03-25T00:13:27;99253.19;;;15.77;62.10
53868;BME280;41577;47.470;19.080;2023-03-25T00:13:40;99245.13;;;15.77;61.92
53868;BME280;41577;47.470;19.080;2023-03-25T00:13:52;99250.16;;;15.73;62.00
53868;BME280;41577;47.470;19.080;2023-03-25T00:14:05;99248.38;;;15.79;61.28
53868;BME280;41577;47.470;19.080;2023-03-25T00:14:22;99257.03;;;15.81;60.82
53868;BME280;41577;47.470;19.080;2023-03-25T00:14:35;99252.44;;;15.81;61.34
53868;BME280;41577;47.470;19.080;2023-03-25T00:14:50;99255.94;;;15.82;60.85
53868;BME280;41577;47.470;19.080;2023-03-25T00:15:03;99250.56;;;15.82;60.91
53868;BME280;41577;47.470;19.080;2023-03-25T00:15:16;99253.25;;;15.82;61.55
53868;BME280;41577;47.470;19.080;2023-03-25T00:15:30;99249.75;;;15.81;61.10
53868;BME280;41577;47.470;19.080;2023-03-25T00:15:43;99247.06;;;15.81;61.42
53868;BME280;41577;47.470;19.080;2023-03-25T00:15:56;99248.69;;;15.82;61.61
53868;BME280;41577;47.470;19.080;2023-03-25T00:16:09;99244.13;;;15.83;61.41
53868;BME280;41577;47.470;19.080;2023-03-25T00:16:26;99248.44;;;15.84;61.04
53868;BME280;41577;47.470;19.080;2023-03-25T00:16:38;99247.38;;;15.85;60.20
53868;BME280;41577;47.470;19.080;2023-03-25T00:16:53;99251.69;;;15.86;59.93
53868;BME280;41577;47.470;19.080;2023-03-25T00:17:06;99247.13;;;15.86;60.08
53868;BME280;41577;47.470;19.080;2023-03-25T00:17:19;99242.81;;;15.85;59.76
53868;BME280;41577;47.470;19.080;2023-03-25T00:17:32;99242.31;;;15.88;60.02
53868;BME280;41577;47.470;19.080;2023-03-25T00:17:46;99239.63;;;15.88;60.17
53868;BME280;41577;47.470;19.080;2023-03-25T00:17:58;99240.44;;;15.89;60.09
53868;BME280;41577;47.470;19.080;2023-03-25T00:18:13;99237.72;;;15.89;60.25
53868;BME280;41577;47.470;19.080;2023-03-25T00:18:28;99246.63;;;15.89;59.55
53868;BME280;41577;47.470;19.080;2023-03-25T00:18:41;99242.88;;;15.91;60.18
53868;BME280;41577;47.470;19.080;2023-03-25T00:18:53;99242.06;;;15.90;59.89
53868;BME280;41577;47.470;19.080;2023-03-25T00:19:06;99242.06;;;15.90;59.90
53868;BME280;41577;47.470;19.080;2023-03-25T00:19:18;99237.72;;;15.89;60.02
53868;BME280;41577;47.470;19.080;2023-03-25T00:19:30;99243.69;;;15.91;59.81
53868;BME280;41577;47.470;19.080;2023-03-25T00:19:43;99244.75;;;15.90;60.18
53868;BME280;41577;47.470;19.080;2023-03-25T00:20:00;99241.00;;;15.91;59.59
53868;BME280;41577;47.470;19.080;2023-03-25T00:20:14;99243.19;;;15.94;59.87
53868;BME280;41577;47.470;19.080;2023-03-25T00:20:27;99238.06;;;15.93;59.58
53868;BME280;41577;47.470;19.080;2023-03-25T00:20:40;99236.69;;;15.90;59.37
53868;BME280;41577;47.470;19.080;2023-03-25T00:20:53;99239.09;;;15.92;59.75
53868;BME280;41577;47.470;19.080;2023-03-25T00:21:07;99240.75;;;15.93;59.38
53868;BME280;41577;47.470;19.080;2023-03-25T00:21:24;99239.94;;;15.92;59.71
53868;BME280;41577;47.470;19.080;2023-03-25T00:21:37;99245.34;;;15.92;59.46
53868;BME280;41577;47.470;19.080;2023-03-25T00:21:53;99247.75;;;15.94;59.30
53868;BME280;41577;47.470;19.080;2023-03-25T00:22:07;99239.94;;;15.92;59.67
53868;BME280;41577;47.470;19.080;2023-03-25T00:22:20;99242.63;;;15.92;59.99
53868;BME280;41577;47.470;19.080;2023-03-25T00:22:34;99245.34;;;15.92;59.94
53868;BME280;41577;47.470;19.080;2023-03-25T00:22:47;99238.31;;;15.91;59.71
53868;BME280;41577;47.470;19.080;2023-03-25T00:23:00;99244.50;;;15.92;59.85
53868;BME280;41577;47.470;19.080;2023-03-25T00:23:14;99249.06;;;15.91;60.07
53868;BME280;41577;47.470;19.080;2023-03-25T00:23:31;99246.63;;;15.89;59.44
53868;BME280;41577;47.470;19.080;2023-03-25T00:23:44;99249.06;;;15.91;59.64
53868;BME280;41577;47.470;19.080;2023-03-25T00:23:56;99245.34;;;15.92;59.16
53868;BME280;41577;47.470;19.080;2023-03-25T00:24:09;99249.06;;;15.91;59.79
53868;BME280;41577;47.470;19.080;2023-03-25T00:24:25;99248.25;;;15.91;59.32
53868;BME280;41577;47.470;19.080;2023-03-25T00:24:39;99245.56;;;15.91;59.60
53868;BME280;41577;47.470;19.080;2023-03-25T00:24:52;99243.69;;;15.91;58.96
53868;BME280;41577;47.470;19.080;2023-03-25T00:25:06;99249.63;;;15.93;59.07
53868;BME280;41577;47.470;19.080;2023-03-25T00:25:19;99244.50;;;15.92;58.75
53868;BME280;41577;47.470;19.080;2023-03-25T00:25:33;99251.53;;;15.93;58.85
53868;BME280;41577;47.470;19.080;2023-03-25T00:25:46;99246.13;;;15.93;59.29
53868;BME280;41577;47.470;19.080;2023-03-25T00:25:59;99254.78;;;15.95;58.71
53868;BME280;41577;47.470;19.080;2023-03-25T00:26:13;99254.78;;;15.95;58.74
53868;BME280;41577;47.470;19.080;2023-03-25T00:26:25;99253.94;;;15.94;58.75
53868;BME280;41577;47.470;19.080;2023-03-25T00:26:37;99249.88;;;15.92;58.89
53868;BME280;41577;47.470;19.080;2023-03-25T00:26:50;99254.78;;;15.95;58.75
53868;BME280;41577;47.470;19.080;2023-03-25T00:27:03;99251.25;;;15.94;58.88
53868;BME280;41577;47.470;19.080;2023-03-25T00:27:18;99258.06;;;15.97;58.90
53868;BME280;41577;47.470;19.080;2023-03-25T00:27:31;99258.84;;;15.97;58.88
53868;BME280;41577;47.470;19.080;2023-03-25T00:27:54;99264.00;;;15.99;59.03
53868;BME280;41577;47.470;19.080;2023-03-25T00:28:06;99261.31;;;15.99;58.46
53868;BME280;41577;47.470;19.080;2023-03-25T00:28:19;99256.16;;;15.97;58.10
53868;BME280;41577;47.470;19.080;2023-03-25T00:28:35;99264.81;;;15.99;58.44
53868;BME280;41577;47.470;19.080;2023-03-25T00:28:47;99260.22;;;16.00;58.58
53868;BME280;41577;47.470;19.080;2023-03-25T00:29:00;99261.03;;;16.00;57.99
53868;BME280;41577;47.470;19.080;2023-03-25T00:29:12;99256.47;;;16.01;58.43
53868;BME280;41577;47.470;19.080;2023-03-25T00:29:25;99253.53;;;16.02;58.26
53868;BME280;41577;47.470;19.080;2023-03-25T00:29:39;99256.78;;;16.04;58.15
53868;BME280;41577;47.470;19.080;2023-03-25T00:29:52;99255.41;;;16.02;58.34
53868;BME280;41577;47.470;19.080;2023-03-25T00:30:07;99258.69;;;16.04;58.39
53868;BME280;41577;47.470;19.080;2023-03-25T00:30:20;99261.38;;;16.04;58.43
53868;BME280;41577;47.470;19.080;2023-03-25T00:30:33;99253.28;;;16.04;58.17
53868;BME280;41577;47.470;19.080;2023-03-25T00:30:46;99248.72;;;16.04;57.88
53868;BME280;41577;47.470;19.080;2023-03-25T00:30:59;99252.22;;;16.05;58.19
53868;BME280;41577;47.470;19.080;2023-03-25T00:31:14;99256.78;;;16.04;58.19
53868;BME280;41577;47.470;19.080;2023-03-25T00:31:30;99247.34;;;16.02;57.95
53868;BME280;41577;47.470;19.080;2023-03-25T00:31:43;99246.53;;;16.01;58.37
53868;BME280;41577;47.470;19.080;2023-03-25T00:31:55;99250.59;;;16.04;58.37
53868;BME280;41577;47.470;19.080;2023-03-25T00:32:12;99253.28;;;16.04;58.02
53868;BME280;41577;47.470;19.080;2023-03-25T00:32:25;99254.09;;;16.04;58.58
53868;BME280;41577;47.470;19.080;2023-03-25T00:32:38;99255.72;;;16.05;58.02
53868;BME280;41577;47.470;19.080;2023-03-25T00:32:51;99251.66;;;16.03;58.48
53868;BME280;41577;47.470;19.080;2023-03-25T00:33:05;99262.75;;;16.06;58.26
53868;BME280;41577;47.470;19.080;2023-03-25T00:33:17;99251.41;;;16.04;58.06
53868;BME280;41577;47.470;19.080;2023-03-25T00:33:30;99257.34;;;16.06;58.19
53868;BME280;41577;47.470;19.080;2023-03-25T00:33:44;99254.66;;;16.06;58.07
53868;BME280;41577;47.470;19.080;2023-03-25T00:33:56;99256.56;;;16.06;58.01
53868;BME280;41577;47.470;19.080;2023-03-25T00:34:10;99253.59;;;16.07;58.02
53868;BME280;41577;47.470;19.080;2023-03-25T00:34:22;99256.28;;;16.07;58.24
53868;BME280;41577;47.470;19.080;2023-03-25T00:34:35;99251.97;;;16.06;58.14
53868;BME280;41577;47.470;19.080;2023-03-25T00:34:47;99250.09;;;16.07;58.38
53868;BME280;41577;47.470;19.080;2023-03-25T00:35:00;99258.97;;;16.07;58.40
53868;BME280;41577;47.470;19.080;2023-03-25T00:35:14;99250.88;;;16.07;58.24
53868;BME280;41577;47.470;19.080;2023-03-25T00:35:28;99252.78;;;16.07;58.51
53868;BME280;41577;47.470;19.080;2023-03-25T00:35:40;99257.34;;;16.06;58.40
53868;BME280;41577;47.470;19.080;2023-03-25T00:35:53;99250.09;;;16.07;58.10
53868;BME280;41577;47.470;19.080;2023-03-25T00:36:07;99255.47;;;16.07;58.38
53868;BME280;41577;47.470;19.080;2023-03-25T00:36:20;99256.28;;;16.07;58.13
53868;BME280;41577;47.470;19.080;2023-03-25T00:36:35;99252.78;;;16.07;58.40
53868;BME280;41577;47.470;19.080;2023-03-25T00:36:47;99261.66;;;16.07;57.77
53868;BME280;41577;47.470;19.080;2023-03-25T00:37:02;99256.56;;;16.06;58.19
53868;BME280;41577;47.470;19.080;2023-03-25T00:37:15;99260.06;;;16.06;58.06
53868;BME280;41577;47.470;19.080;2023-03-25T00:37:28;99262.75;;;16.06;57.88
53868;BME280;41577;47.470;19.080;2023-03-25T00:37:41;99265.19;;;16.08;58.18
53868;BME280;41577;47.470;19.080;2023-03-25T00:37:54;99253.59;;;16.07;58.29
53868;BME280;41577;47.470;19.080;2023-03-25T00:38:06;99267.06;;;16.07;57.86
53868;BME280;41577;47.470;19.080;2023-03-25T00:38:19;99254.66;;;16.06;57.76
53868;BME280;41577;47.470;19.080;2023-03-25T00:38:33;99260.84;;;16.07;57.88
53868;BME280;41577;47.470;19.080;2023-03-25T00:38:47;99258.16;;;16.07;58.27
53868;BME280;41577;47.470;19.080;2023-03-25T00:39:00;99253.84;;;16.06;57.93
53868;BME280;41577;47.470;19.080;2023-03-25T00:39:12;99257.34;;;16.06;57.88
53868;BME280;41577;47.470;19.080;2023-03-25T00:39:29;99256.28;;;16.07;57.96
53868;BME280;41577;47.470;19.080;2023-03-25T00:39:43;99256.56;;;16.06;57.92
53868;BME280;41577;47.470;19.080;2023-03-25T00:39:56;99253.03;;;16.05;58.04
53868;BME280;41577;47.470;19.080;2023-03-25T00:40:08;99258.16;;;16.07;58.59
53868;BME280;41577;47.470;19.080;2023-03-25T00:40:21;99260.06;;;16.06;58.62
53868;BME280;41577;47.470;19.080;2023-03-25T00:40:34;99260.28;;;16.05;58.56
53868;BME280;41577;47.470;19.080;2023-03-25T00:40:47;99263.78;;;16.05;58.09
53868;BME280;41577;47.470;19.080;2023-03-25T00:41:08;99259.47;;;16.04;58.52
53868;BME280;41577;47.470;19.080;2023-03-25T00:41:22;99257.59;;;16.05;58.25
53868;BME280;41577;47.470;19.080;2023-03-25T00:41:35;99254.91;;;16.05;58.52
53868;BME280;41577;47.470;19.080;2023-03-25T00:41:52;99262.19;;;16.04;58.44
53868;BME280;41577;47.470;19.080;2023-03-25T00:42:05;99258.69;;;16.04;58.75
53868;BME280;41577;47.470;19.080;2023-03-25T00:42:17;99255.19;;;16.03;58.00
53868;BME280;41577;47.470;19.080;2023-03-25T00:42:31;99262.19;;;16.04;58.42
53868;BME280;41577;47.470;19.080;2023-03-25T00:42:45;99255.41;;;16.02;58.55
53868;BME280;41577;47.470;19.080;2023-03-25T00:42:58;99257.03;;;16.03;58.76
53868;BME280;41577;47.470;19.080;2023-03-25T00:43:10;99253.53;;;16.02;58.27
53868;BME280;41577;47.470;19.080;2023-03-25T00:43:23;99253.53;;;16.02;58.90
53868;BME280;41577;47.470;19.080;2023-03-25T00:43:35;99253.53;;;16.02;58.39
53868;BME280;41577;47.470;19.080;2023-03-25T00:43:48;99251.91;;;16.01;58.65
53868;BME280;41577;47.470;19.080;2023-03-25T00:44:03;99248.66;;;15.99;58.70
53868;BME280;41577;47.470;19.080;2023-03-25T00:44:16;99251.91;;;16.01;58.28
53868;BME280;41577;47.470;19.080;2023-03-25T00:44:28;99258.06;;;15.97;58.73
53868;BME280;41577;47.470;19.080;2023-03-25T00:44:41;99259.44;;;15.99;58.34
53868;BME280;41577;47.470;19.080;2023-03-25T00:44:54;99264.53;;;16.01;58.76
53868;BME280;41577;47.470;19.080;2023-03-25T00:45:07;99260.00;;;16.01;58.51
53868;BME280;41577;47.470;19.080;2023-03-25T00:45:20;99260.00;;;16.01;58.48
53868;BME280;41577;47.470;19.080;2023-03-25T00:45:33;99253.47;;;15.97;58.52
53868;BME280;41577;47.470;19.080;2023-03-25T00:45:45;99245.69;;;16.01;59.09
53868;BME280;41577;47.470;19.080;2023-03-25T00:45:57;99251.91;;;16.01;58.98
53868;BME280;41577;47.470;19.080;2023-03-25T00:46:10;99251.06;;;16.01;59.04
53868;BME280;41577;47.470;19.080;2023-03-25T00:46:23;99262.69;;;16.01;58.96
53868;BME280;41577;47.470;19.080;2023-03-25T00:46:35;99252.97;;;16.00;59.42
53868;BME280;41577;47.470;19.080;2023-03-25T00:46:48;99253.78;;;16.01;58.69
53868;BME280;41577;47.470;19.080;2023-03-25T00:47:03;99262.69;;;16.01;58.91
53868;BME280;41577;47.470;19.080;2023-03-25T00:47:16;99256.72;;;15.99;59.07
53868;BME280;41577;47.470;19.080;2023-03-25T00:47:29;99249.47;;;16.00;58.94
53868;BME280;41577;47.470;19.080;2023-03-25T00:47:43;99251.34;;;15.99;59.45
53868;BME280;41577;47.470;19.080;2023-03-25T00:47:56;99257.53;;;16.00;59.26
53868;BME280;41577;47.470;19.080;2023-03-25T00:48:09;99258.63;;;15.99;58.96
53868;BME280;41577;47.470;19.080;2023-03-25T00:48:21;99256.72;;;15.99;59.60
53868;BME280;41577;47.470;19.080;2023-03-25T00:48:33;99255.09;;;15.98;59.47
53868;BME280;41577;47.470;19.080;2023-03-25T00:48:45;99255.94;;;15.99;59.61
53868;BME280;41577;47.470;19.080;2023-03-25T00:48:58;99244.59;;;15.97;59.73
53868;BME280;41577;47.470;19.080;2023-03-25T00:49:12;99247.50;;;15.95;59.51
53868;BME280;41577;47.470;19.080;2023-03-25T00:49:25;99254.53;;;15.96;59.81
53868;BME280;41577;47.470;19.080;2023-03-25T00:49:37;99252.41;;;15.98;59.79
53868;BME280;41577;47.470;19.080;2023-03-25T00:49:49;99260.47;;;15.98;59.65
53868;BME280;41577;47.470;19.080;2023-03-25T00:50:01;99252.66;;;15.97;59.71
53868;BME280;41577;47.470;19.080;2023-03-25T00:50:15;99247.28;;;15.97;59.89
53868;BME280;41577;47.470;19.080;2023-03-25T00:50:28;99251.00;;;15.96;59.84
53868;BME280;41577;47.470;19.080;2023-03-25T00:50:40;99261.56;;;15.97;59.68
53868;BME280;41577;47.470;19.080;2023-03-25T00:50:53;99254.53;;;15.96;60.03
53868;BME280;41577;47.470;19.080;2023-03-25T00:51:07;99258.06;;;15.97;59.57
53868;BME280;41577;47.470;19.080;2023-03-25T00:51:20;99258.84;;;15.97;59.48
53868;BME280;41577;47.470;19.080;2023-03-25T00:51:33;99257.22;;;15.96;59.63
53868;BME280;41577;47.470;19.080;2023-03-25T00:52:04;99254.78;;;15.95;59.78
53868;BME280;41577;47.470;19.080;2023-03-25T00:52:18;99258.28;;;15.95;60.01
53868;BME280;41577;47.470;19.080;2023-03-25T00:52:32;99264.47;;;15.96;60.04
53868;BME280;41577;47.470;19.080;2023-03-25T00:52:49;99270.94;;;15.95;59.88
53868;BME280;41577;47.470;19.080;2023-03-25T00:53:02;99264.47;;;15.96;60.30
53868;BME280;41577;47.470;19.080;2023-03-25T00:53:14;99270.94;;;15.95;59.77
53868;BME280;41577;47.470;19.080;2023-03-25T00:53:27;99273.63;;;15.95;60.02
53868;BME280;41577;47.470;19.080;2023-03-25T00:53:39;99260.16;;;15.95;60.14
53868;BME280;41577;47.470;19.080;2023-03-25T00:53:55;99258.53;;;15.94;59.99
53868;BME280;41577;47.470;19.080;2023-03-25T00:54:08;99262.88;;;15.95;60.22
53868;BME280;41577;47.470;19.080;2023-03-25T00:54:21;99255.59;;;15.95;60.59
53868;BME280;41577;47.470;19.080;2023-03-25T00:54:36;99267.41;;;15.94;59.99
53868;BME280;41577;47.470;19.080;2023-03-25T00:54:49;99270.09;;;15.94;60.48
53868;BME280;41577;47.470;19.080;2023-03-25T00:55:01;99266.59;;;15.94;60.43
53868;BME280;41577;47.470;19.080;2023-03-25T00:55:13;99271.75;;;15.95;60.66
53868;BME280;41577;47.470;19.080;2023-03-25T00:55:29;99260.16;;;15.95;60.54
53868;BME280;41577;47.470;19.080;2023-03-25T00:55:42;99245.88;;;15.94;60.78
53868;BME280;41577;47.470;19.080;2023-03-25T00:55:56;99251.25;;;15.94;60.70
53868;BME280;41577;47.470;19.080;2023-03-25T00:56:09;99256.09;;;15.92;60.28
53868;BME280;41577;47.470;19.080;2023-03-25T00:56:22;99256.66;;;15.94;60.21
53868;BME280;41577;47.470;19.080;2023-03-25T00:56:34;99255.03;;;15.93;60.46
53868;BME280;41577;47.470;19.080;2023-03-25T00:56:47;99253.13;;;15.94;60.88
53868;BME280;41577;47.470;19.080;2023-03-25T00:57:00;99255.03;;;15.93;60.58
53868;BME280;41577;47.470;19.080;2023-03-25T00:57:13;99252.34;;;15.93;60.51
53868;BME280;41577;47.470;19.080;2023-03-25T00:57:27;99257.72;;;15.93;60.36
53868;BME280;41577;47.470;19.080;2023-03-25T00:57:40;99253.41;;;15.92;60.95
53868;BME280;41577;47.470;19.080;2023-03-25T00:57:53;99255.03;;;15.93;60.73
53868;BME280;41577;47.470;19.080;2023-03-25T00:58:06;99256.66;;;15.94;60.53
53868;BME280;41577;47.470;19.080;2023-03-25T00:58:19;99250.72;;;15.92;61.09
53868;BME280;41577;47.470;19.080;2023-03-25T00:58:31;99261.50;;;15.92;60.97
53868;BME280;41577;47.470;19.080;2023-03-25T00:58:46;99256.34;;;15.91;60.39
53868;BME280;41577;47.470;19.080;2023-03-25T00:58:59;99255.25;;;15.92;60.94
53868;BME280;41577;47.470;19.080;2023-03-25T00:59:11;99251.75;;;15.91;61.16
53868;BME280;41577;47.470;19.080;2023-03-25T00:59:23;99251.19;;;15.89;60.76
53868;BME280;41577;47.470;19.080;2023-03-25T00:59:36;99254.47;;;15.91;61.19
53868;BME280;41577;47.470;19.080;2023-03-25T00:59:48;99253.66;;;15.91;61.16
53868;BME280;41577;47.470;19.080;2023-03-25T01:00:05;99264.41;;;15.91;61.18
53868;BME280;41577;47.470;19.080;2023-03-25T01:00:19;99259.28;;;15.89;60.86
53868;BME280;41577;47.470;19.080;2023-03-25T01:00:31;99261.97;;;15.89;61.47
53868;BME280;41577;47.470;19.080;2023-03-25T01:00:44;99258.47;;;15.88;61.20
53868;BME280;41577;47.470;19.080;2023-03-25T01:00:56;99253.88;;;15.89;61.01
53868;BME280;41577;47.470;19.080;2023-03-25T01:01:10;99254.97;;;15.88;61.36
53868;BME280;41577;47.470;19.080;2023-03-25T01:01:24;99258.72;;;15.87;61.67
53868;BME280;41577;47.470;19.080;2023-03-25T01:01:36;99247.94;;;15.87;61.01
53868;BME280;41577;47.470;19.080;2023-03-25T01:01:51;99254.97;;;15.88;61.23
53868;BME280;41577;47.470;19.080;2023-03-25T01:02:04;99250.63;;;15.87;61.14
53868;BME280;41577;47.470;19.080;2023-03-25T01:02:17;99260.34;;;15.88;61.35
53868;BME280;41577;47.470;19.080;2023-03-25T01:02:29;99251.19;;;15.89;61.56
53868;BME280;41577;47.470;19.080;2023-03-25T01:02:42;99250.91;;;15.85;61.50
53868;BME280;41577;47.470;19.080;2023-03-25T01:02:55;99265.97;;;15.86;61.44
53868;BME280;41577;47.470;19.080;2023-03-25T01:03:09;99253.31;;;15.87;61.66
53868;BME280;41577;47.470;19.080;2023-03-25T01:03:23;99257.91;;;15.86;61.88
53868;BME280;41577;47.470;19.080;2023-03-25T01:03:37;99279.44;;;15.86;62.31
53868;BME280;41577;47.470;19.080;2023-03-25T01:03:51;99257.91;;;15.86;61.86
53868;BME280;41577;47.470;19.080;2023-03-25T01:04:05;99260.03;;;15.84;61.82
53868;BME280;41577;47.470;19.080;2023-03-25T01:04:17;99260.59;;;15.86;62.25
53868;BME280;41577;47.470;19.080;2023-03-25T01:04:30;99260.81;;;15.85;62.25
53868;BME280;41577;47.470;19.080;2023-03-25T01:04:42;99263.53;;;15.85;61.85
53868;BME280;41577;47.470;19.080;2023-03-25T01:04:57;99263.78;;;15.83;62.00
53868;BME280;41577;47.470;19.080;2023-03-25T01:05:10;99256.53;;;15.84;62.27
53868;BME280;41577;47.470;19.080;2023-03-25T01:05:26;99261.09;;;15.83;62.84
53868;BME280;41577;47.470;19.080;2023-03-25T01:05:39;99259.44;;;15.82;62.79
53868;BME280;41577;47.470;19.080;2023-03-25T01:05:51;99271.06;;;15.83;62.50
53868;BME280;41577;47.470;19.080;2023-03-25T01:06:08;99253.25;;;15.82;63.01
53868;BME280;41577;47.470;19.080;2023-03-25T01:06:24;99253.25;;;15.82;63.08
53868;BME280;41577;47.470;19.080;2023-03-25T01:06:38;99264.03;;;15.82;63.13
53868;BME280;41577;47.470;19.080;2023-03-25T01:06:51;99261.34;;;15.82;62.63
53868;BME280;41577;47.470;19.080;2023-03-25T01:07:03;99258.06;;;15.80;62.96
53868;BME280;41577;47.470;19.080;2023-03-25T01:07:16;99262.41;;;15.81;63.40
53868;BME280;41577;47.470;19.080;2023-03-25T01:07:29;99258.34;;;15.78;63.40
53868;BME280;41577;47.470;19.080;2023-03-25T01:07:42;99256.47;;;15.79;63.26
53868;BME280;41577;47.470;19.080;2023-03-25T01:07:55;99254.81;;;15.78;62.99
53868;BME280;41577;47.470;19.080;2023-03-25T01:08:07;99258.59;;;15.77;63.52
53868;BME280;41577;47.470;19.080;2023-03-25T01:08:21;99250.50;;;15.77;63.43
53868;BME280;41577;47.470;19.080;2023-03-25T01:08:33;99255.09;;;15.76;63.67
53868;BME280;41577;47.470;19.080;2023-03-25T01:08:45;99263.16;;;15.76;63.72
53868;BME280;41577;47.470;19.080;2023-03-25T01:09:02;99256.94;;;15.76;63.42
53868;BME280;41577;47.470;19.080;2023-03-25T01:09:15;99257.78;;;15.76;63.37
53868;BME280;41577;47.470;19.080;2023-03-25T01:09:28;99258.00;;;15.75;64.06
53868;BME280;41577;47.470;19.080;2023-03-25T01:09:40;99265.00;;;15.76;63.47
53868;BME280;41577;47.470;19.080;2023-03-25T01:09:53;99251.00;;;15.74;63.65
53868;BME280;41577;47.470;19.080;2023-03-25T01:10:06;99251.00;;;15.74;63.68
53868;BME280;41577;47.470;19.080;2023-03-25T01:10:20;99259.09;;;15.74;63.69
53868;BME280;41577;47.470;19.080;2023-03-25T01:10:34;99255.56;;;15.73;64.43
53868;BME280;41577;47.470;19.080;2023-03-25T01:10:46;99253.94;;;15.72;64.15
53868;BME280;41577;47.470;19.080;2023-03-25T01:10:58;99262.25;;;15.71;64.71
53868;BME280;41577;47.470;19.080;2023-03-25T01:11:17;99255.00;;;15.71;64.51
53868;BME280;41577;47.470;19.080;2023-03-25T01:11:31;99249.28;;;15.67;64.61